sensor_id;sensor_type;location;lat;lon;timestamp;temperature;humidity
72936;DHT22;61085;48.804;9.228;2023-04-28T00:01:17;12.80;99.90
72936;DHT22;61085;48.804;9.228;2023-04-28T00:03:42;12.70;99.90
72936;DHT22;61085;48.804;9.228;2023-04-28T00:06:09;12.70;99.90
72936;DHT22;61085;48.804;9.228;2023-04-28T00:08:35;12.70;99.90
72936;DHT22;61085;48.804;9.228;2023-04-28T00:11:01;12.70;99.90
72936;DHT22;61085;48.804;9.228;2023-04-28T00:13:26;12.80;99.90
72936;DHT22;61085;48.804;9.228;2023-04-28T00:15:52;12.80;99.90
72936;DHT22;61085;48.804;9.228;2023-04-28T00:18:19;12.80;99.90
72936;DHT22;61085;48.804;9.228;2023-04-28T00:20:44;12.80;99.90
72936;DHT22;61085;48.804;9.228;2023-04-28T00:23:10;12.80;99.90
72936;DHT22;61085;48.804;9.228;2023-04-28T00:25:35;12.80;99.90
72936;DHT22;61085;48.804;9.228;2023-04-28T00:28:01;12.80;99.90
72936;DHT22;61085;48.804;9.228;2023-04-28T00:30:29;12.80;99.90
72936;DHT22;61085;48.804;9.228;2023-04-28T00:32:55;12.80;99.90
72936;DHT22;61085;48.804;9.228;2023-04-28T00:35:21;12.80;99.90
72936;DHT22;61085;48.804;9.228;2023-04-28T00:37:46;12.80;99.90
72936;DHT22;61085;48.804;9.228;2023-04-28T00:40:12;12.70;99.90
72936;DHT22;61085;48.804;9.228;2023-04-28T00:42:38;12.70;99.90
72936;DHT22;61085;48.804;9.228;2023-04-28T00:45:04;12.80;99.90
72936;DHT22;61085;48.804;9.228;2023-04-28T00:47:35;12.90;99.90
72936;DHT22;61085;48.804;9.228;2023-04-28T00:50:03;12.90;99.90
72936;DHT22;61085;48.804;9.228;2023-04-28T00:52:30;12.90;99.90
72936;DHT22;61085;48.804;9.228;2023-04-28T00:54:56;12.90;99.90
72936;DHT22;61085;48.804;9.228;2023-04-28T00:57:22;12.80;99.90
72936;DHT22;61085;48.804;9.228;2023-04-28T00:59:48;12.70;99.90
72936;DHT22;61085;48.804;9.228;2023-04-28T01:02:14;13.00;99.90
72936;DHT22;61085;48.804;9.228;2023-04-28T01:04:45;12.90;99.90
72936;DHT22;61085;48.804;9.228;2023-04-28T01:07:11;12.90;99.90
72936;DHT22;61085;48.804;9.228;2023-04-28T01:09:37;12.90;99.90
72936;DHT22;61085;48.804;9.228;2023-04-28T01:12:03;12.80;99.90
72936;DHT22;61085;48.804;9.228;2023-04-28T01:14:29;12.80;99.90
72936;DHT22;61085;48.804;9.228;2023-04-28T01:16:55;12.80;99.90
72936;DHT22;61085;48.804;9.228;2023-04-28T01:19:22;12.70;99.90
72936;DHT22;61085;48.804;9.228;2023-04-28T01:21:48;12.70;99.90
72936;DHT22;61085;48.804;9.228;2023-04-28T01:24:14;12.70;99.90
72936;DHT22;61085;48.804;9.228;2023-04-28T01:26:40;12.70;99.90
72936;DHT22;61085;48.804;9.228;2023-04-28T01:29:05;12.80;99.90
72936;DHT22;61085;48.804;9.228;2023-04-28T01:31:31;12.80;99.90
72936;DHT22;61085;48.804;9.228;2023-04-28T01:33:57;12.80;99.90
72936;DHT22;61085;48.804;9.228;2023-04-28T01:36:22;12.80;99.90
72936;DHT22;61085;48.804;9.228;2023-04-28T01:38:49;12.80;99.90
72936;DHT22;61085;48.804;9.228;2023-04-28T01:41:14;12.80;99.90
72936;DHT22;61085;48.804;9.228;2023-04-28T01:43:40;12.90;99.90
72936;DHT22;61085;48.804;9.228;2023-04-28T01:46:08;12.90;99.90
72936;DHT22;61085;48.804;9.228;2023-04-28T01:48:34;12.90;99.90
72936;DHT22;61085;48.804;9.228;2023-04-28T01:50:59;12.90;99.90
72936;DHT22;61085;48.804;9.228;2023-04-28T01:53:25;12.90;99.90
72936;DHT22;61085;48.804;9.228;2023-04-28T01:59:12;12.90;99.90
72936;DHT22;61085;48.804;9.228;2023-04-28T02:01:38;12.90;99.90
72936;DHT22;61085;48.804;9.228;2023-04-28T02:04:04;12.90;99.90
72936;DHT22;61085;48.804;9.228;2023-04-28T02:06:29;12.90;99.90
72936;DHT22;61085;48.804;9.228;2023-04-28T02:08:56;12.80;99.90
72936;DHT22;61085;48.804;9.228;2023-04-28T02:11:21;12.80;99.90
72936;DHT22;61085;48.804;9.228;2023-04-28T02:13:47;12.70;99.90
72936;DHT22;61085;48.804;9.228;2023-04-28T02:16:12;12.70;99.90
72936;DHT22;61085;48.804;9.228;2023-04-28T02:18:38;12.70;99.90
72936;DHT22;61085;48.804;9.228;2023-04-28T02:21:12;12.70;99.90
72936;DHT22;61085;48.804;9.228;2023-04-28T02:23:39;12.70;99.90
72936;DHT22;61085;48.804;9.228;2023-04-28T02:26:05;12.80;99.90
72936;DHT22;61085;48.804;9.228;2023-04-28T02:28:31;12.90;99.90
72936;DHT22;61085;48.804;9.228;2023-04-28T02:31:07;12.90;99.90
72936;DHT22;61085;48.804;9.228;2023-04-28T02:33:34;12.90;99.90
72936;DHT22;61085;48.804;9.228;2023-04-28T02:36:00;12.90;99.90
72936;DHT22;61085;48.804;9.228;2023-04-28T02:38:26;12.90;99.90
72936;DHT22;61085;48.804;9.228;2023-04-28T02:41:05;12.80;99.90
72936;DHT22;61085;48.804;9.228;2023-04-28T02:43:32;12.80;99.90
72936;DHT22;61085;48.804;9.228;2023-04-28T02:45:58;12.90;99.90
72936;DHT22;61085;48.804;9.228;2023-04-28T02:48:24;12.90;99.90
72936;DHT22;61085;48.804;9.228;2023-04-28T02:50:50;12.90;99.90
72936;DHT22;61085;48.804;9.228;2023-04-28T02:53:17;12.90;99.90
72936;DHT22;61085;48.804;9.228;2023-04-28T02:55:43;12.90;99.90
72936;DHT22;61085;48.804;9.228;2023-04-28T02:58:09;12.90;99.90
72936;DHT22;61085;48.804;9.228;2023-04-28T03:00:35;13.00;99.90
72936;DHT22;61085;48.804;9.228;2023-04-28T03:03:01;12.90;99.90
72936;DHT22;61085;48.804;9.228;2023-04-28T03:05:26;12.90;99.90
72936;DHT22;61085;48.804;9.228;2023-04-28T03:07:52;12.90;99.90
72936;DHT22;61085;48.804;9.228;2023-04-28T03:10:18;12.90;99.90
72936;DHT22;61085;48.804;9.228;2023-04-28T03:12:44;12.90;99.90
72936;DHT22;61085;48.804;9.228;2023-04-28T03:15:10;13.10;99.90
72936;DHT22;61085;48.804;9.228;2023-04-28T03:17:36;13.00;99.90
72936;DHT22;61085;48.804;9.228;2023-04-28T03:20:04;13.00;99.90
72936;DHT22;61085;48.804;9.228;2023-04-28T03:22:30;13.00;99.90
72936;DHT22;61085;48.804;9.228;2023-04-28T03:24:56;12.90;99.90
72936;DHT22;61085;48.804;9.228;2023-04-28T03:27:21;13.00;99.90
72936;DHT22;61085;48.804;9.228;2023-04-28T03:29:47;12.90;99.90
72936;DHT22;61085;48.804;9.228;2023-04-28T03:32:13;12.80;99.90
72936;DHT22;61085;48.804;9.228;2023-04-28T03:34:38;12.70;99.90
72936;DHT22;61085;48.804;9.228;2023-04-28T03:37:04;12.70;99.90
72936;DHT22;61085;48.804;9.228;2023-04-28T03:39:30;13.00;99.90
72936;DHT22;61085;48.804;9.228;2023-04-28T03:41:55;12.90;99.90
72936;DHT22;61085;48.804;9.228;2023-04-28T03:44:21;12.90;99.90
72936;DHT22;61085;48.804;9.228;2023-04-28T03:46:48;12.90;99.90
72936;DHT22;61085;48.804;9.228;2023-04-28T03:49:14;12.80;99.90
72936;DHT22;61085;48.804;9.228;2023-04-28T03:51:39;12.70;99.90
72936;DHT22;61085;48.804;9.228;2023-04-28T03:54:05;12.70;99.90
72936;DHT22;61085;48.804;9.228;2023-04-28T03:56:31;12.70;99.90
72936;DHT22;61085;48.804;9.228;2023-04-28T03:58:57;12.80;99.90
72936;DHT22;61085;48.804;9.228;2023-04-28T04:01:23;12.80;99.90
72936;DHT22;61085;48.804;9.228;2023-04-28T04:03:48;12.80;99.90
72936;DHT22;61085;48.804;9.228;2023-04-28T04:06:14;12.80;99.90
72936;DHT22;61085;48.804;9.228;2023-04-28T04:08:40;12.90;99.90
72936;DHT22;61085;48.804;9.228;2023-04-28T04:11:06;12.80;99.90
72936;DHT22;61085;48.804;9.228;2023-04-28T04:13:31;12.90;99.90
72936;DHT22;61085;48.804;9.228;2023-04-28T04:15:57;12.80;99.90
72936;DHT22;61085;48.804;9.228;2023-04-28T04:18:23;12.90;99.90
72936;DHT22;61085;48.804;9.228;2023-04-28T04:20:49;12.90;99.90
72936;DHT22;61085;48.804;9.228;2023-04-28T04:23:15;12.90;99.90
72936;DHT22;61085;48.804;9.228;2023-04-28T04:25:41;13.00;99.90
72936;DHT22;61085;48.804;9.228;2023-04-28T04:28:06;13.00;99.90
72936;DHT22;61085;48.804;9.228;2023-04-28T04:30:32;12.90;99.90
72936;DHT22;61085;48.804;9.228;2023-04-28T04:32:58;12.90;99.90
72936;DHT22;61085;48.804;9.228;2023-04-28T04:35:24;12.90;99.90
72936;DHT22;61085;48.804;9.228;2023-04-28T04:37:49;13.00;99.90
72936;DHT22;61085;48.804;9.228;2023-04-28T04:40:15;12.90;99.90
72936;DHT22;61085;48.804;9.228;2023-04-28T04:42:41;13.00;99.90
72936;DHT22;61085;48.804;9.228;2023-04-28T04:45:07;13.00;99.90
72936;DHT22;61085;48.804;9.228;2023-04-28T04:47:33;12.90;99.90
72936;DHT22;61085;48.804;9.228;2023-04-28T04:49:58;12.80;99.90
72936;DHT22;61085;48.804;9.228;2023-04-28T04:52:24;12.80;99.90
72936;DHT22;61085;48.804;9.228;2023-04-28T04:54:50;12.80;99.90
72936;DHT22;61085;48.804;9.228;2023-04-28T04:57:15;12.80;99.90
72936;DHT22;61085;48.804;9.228;2023-04-28T04:59:41;12.50;99.90
72936;DHT22;61085;48.804;9.228;2023-04-28T05:02:07;12.80;99.90
72936;DHT22;61085;48.804;9.228;2023-04-28T05:04:33;12.90;99.90
72936;DHT22;61085;48.804;9.228;2023-04-28T05:06:58;12.90;99.90
72936;DHT22;61085;48.804;9.228;2023-04-28T05:09:24;13.10;99.90
72936;DHT22;61085;48.804;9.228;2023-04-28T05:11:50;13.00;99.90
72936;DHT22;61085;48.804;9.228;2023-04-28T05:14:15;13.00;99.90
72936;DHT22;61085;48.804;9.228;2023-04-28T05:16:41;13.00;99.90
72936;DHT22;61085;48.804;9.228;2023-04-28T05:19:07;13.00;99.90
72936;DHT22;61085;48.804;9.228;2023-04-28T05:21:33;13.10;99.90
72936;DHT22;61085;48.804;9.228;2023-04-28T05:23:58;13.10;99.90
72936;DHT22;61085;48.804;9.228;2023-04-28T05:26:24;13.10;99.90
72936;DHT22;61085;48.804;9.228;2023-04-28T05:28:50;13.00;99.90
72936;DHT22;61085;48.804;9.228;2023-04-28T05:31:16;13.00;99.90
72936;DHT22;61085;48.804;9.228;2023-04-28T05:33:41;12.90;99.90
72936;DHT22;61085;48.804;9.228;2023-04-28T05:36:07;13.00;99.90
72936;DHT22;61085;48.804;9.228;2023-04-28T05:38:34;13.10;99.90
72936;DHT22;61085;48.804;9.228;2023-04-28T05:41:01;13.10;99.90
72936;DHT22;61085;48.804;9.228;2023-04-28T05:43:27;13.10;99.90
72936;DHT22;61085;48.804;9.228;2023-04-28T05:45:52;13.00;99.90
72936;DHT22;61085;48.804;9.228;2023-04-28T05:48:18;12.90;99.90
72936;DHT22;61085;48.804;9.228;2023-04-28T05:50:44;12.90;99.90
72936;DHT22;61085;48.804;9.228;2023-04-28T05:53:10;12.80;99.90
72936;DHT22;61085;48.804;9.228;2023-04-28T05:55:35;12.80;99.90
72936;DHT22;61085;48.804;9.228;2023-04-28T05:58:02;12.60;99.90
72936;DHT22;61085;48.804;9.228;2023-04-28T06:00:28;12.50;99.90
72936;DHT22;61085;48.804;9.228;2023-04-28T06:02:53;12.60;99.90
72936;DHT22;61085;48.804;9.228;2023-04-28T06:05:19;12.60;99.90
72936;DHT22;61085;48.804;9.228;2023-04-28T06:07:45;12.60;99.90
72936;DHT22;61085;48.804;9.228;2023-04-28T06:10:11;12.60;99.90
72936;DHT22;61085;48.804;9.228;2023-04-28T06:12:37;12.60;99.90
72936;DHT22;61085;48.804;9.228;2023-04-28T06:15:04;12.70;99.90
72936;DHT22;61085;48.804;9.228;2023-04-28T06:17:30;12.60;99.90
72936;DHT22;61085;48.804;9.228;2023-04-28T06:19:58;12.70;99.90
72936;DHT22;61085;48.804;9.228;2023-04-28T06:22:24;12.60;99.90
72936;DHT22;61085;48.804;9.228;2023-04-28T06:24:50;12.70;99.90
72936;DHT22;61085;48.804;9.228;2023-04-28T06:27:16;12.70;99.90
72936;DHT22;61085;48.804;9.228;2023-04-28T06:29:43;12.60;99.90
72936;DHT22;61085;48.804;9.228;2023-04-28T06:32:09;12.70;99.90
72936;DHT22;61085;48.804;9.228;2023-04-28T06:34:35;12.70;99.90
72936;DHT22;61085;48.804;9.228;2023-04-28T06:37:01;12.70;99.90
72936;DHT22;61085;48.804;9.228;2023-04-28T06:39:27;12.70;99.90
72936;DHT22;61085;48.804;9.228;2023-04-28T06:41:52;12.70;99.90
72936;DHT22;61085;48.804;9.228;2023-04-28T06:44:18;12.60;99.90
72936;DHT22;61085;48.804;9.228;2023-04-28T06:46:46;12.60;99.90
72936;DHT22;61085;48.804;9.228;2023-04-28T06:49:12;12.60;99.90
72936;DHT22;61085;48.804;9.228;2023-04-28T06:51:38;12.60;99.90
72936;DHT22;61085;48.804;9.228;2023-04-28T06:54:03;12.60;99.90
72936;DHT22;61085;48.804;9.228;2023-04-28T06:56:29;12.70;99.90
72936;DHT22;61085;48.804;9.228;2023-04-28T06:58:55;12.80;99.90
72936;DHT22;61085;48.804;9.228;2023-04-28T07:01:21;12.80;99.90
72936;DHT22;61085;48.804;9.228;2023-04-28T07:03:47;12.80;99.90
72936;DHT22;61085;48.804;9.228;2023-04-28T07:06:13;12.90;99.90
72936;DHT22;61085;48.804;9.228;2023-04-28T07:08:38;12.90;99.90
72936;DHT22;61085;48.804;9.228;2023-04-28T07:11:04;12.80;99.90
72936;DHT22;61085;48.804;9.228;2023-04-28T07:13:31;12.80;99.90
72936;DHT22;61085;48.804;9.228;2023-04-28T07:15:57;12.80;99.90
72936;DHT22;61085;48.804;9.228;2023-04-28T07:18:23;12.80;99.90
72936;DHT22;61085;48.804;9.228;2023-04-28T07:20:49;12.90;99.90
72936;DHT22;61085;48.804;9.228;2023-04-28T07:23:15;12.70;99.90
72936;DHT22;61085;48.804;9.228;2023-04-28T07:25:40;12.70;99.90
72936;DHT22;61085;48.804;9.228;2023-04-28T07:28:06;12.70;99.90
72936;DHT22;61085;48.804;9.228;2023-04-28T07:30:32;12.50;99.90
72936;DHT22;61085;48.804;9.228;2023-04-28T07:32:58;12.50;99.90
72936;DHT22;61085;48.804;9.228;2023-04-28T07:35:24;12.40;99.90
72936;DHT22;61085;48.804;9.228;2023-04-28T07:37:50;12.40;99.90
72936;DHT22;61085;48.804;9.228;2023-04-28T07:40:16;12.40;99.90
72936;DHT22;61085;48.804;9.228;2023-04-28T07:42:42;12.50;99.90
72936;DHT22;61085;48.804;9.228;2023-04-28T07:45:08;12.60;99.90
72936;DHT22;61085;48.804;9.228;2023-04-28T07:47:34;12.70;99.90
72936;DHT22;61085;48.804;9.228;2023-04-28T07:50:01;12.70;99.90
72936;DHT22;61085;48.804;9.228;2023-04-28T07:52:34;12.80;99.90
72936;DHT22;61085;48.804;9.228;2023-04-28T07:55:00;12.70;99.90
72936;DHT22;61085;48.804;9.228;2023-04-28T07:57:26;12.70;99.90
72936;DHT22;61085;48.804;9.228;2023-04-28T07:59:53;12.70;99.90
72936;DHT22;61085;48.804;9.228;2023-04-28T08:02:19;12.70;99.90
72936;DHT22;61085;48.804;9.228;2023-04-28T08:04:45;12.70;99.90
72936;DHT22;61085;48.804;9.228;2023-04-28T08:07:11;12.70;99.90
72936;DHT22;61085;48.804;9.228;2023-04-28T08:09:37;13.00;99.90
72936;DHT22;61085;48.804;9.228;2023-04-28T08:12:04;13.10;99.90
72936;DHT22;61085;48.804;9.228;2023-04-28T08:14:30;13.00;99.90
72936;DHT22;61085;48.804;9.228;2023-04-28T08:16:56;13.00;99.90
72936;DHT22;61085;48.804;9.228;2023-04-28T08:19:22;13.00;99.90
72936;DHT22;61085;48.804;9.228;2023-04-28T08:21:48;13.00;99.90
72936;DHT22;61085;48.804;9.228;2023-04-28T08:24:13;13.10;99.90
72936;DHT22;61085;48.804;9.228;2023-04-28T08:26:39;13.20;99.90
72936;DHT22;61085;48.804;9.228;2023-04-28T08:29:05;13.20;99.90
72936;DHT22;61085;48.804;9.228;2023-04-28T08:31:31;13.00;99.90
72936;DHT22;61085;48.804;9.228;2023-04-28T08:33:56;12.90;99.90
72936;DHT22;61085;48.804;9.228;2023-04-28T08:36:22;12.90;99.90
72936;DHT22;61085;48.804;9.228;2023-04-28T08:38:49;12.70;99.90
72936;DHT22;61085;48.804;9.228;2023-04-28T08:41:15;12.70;99.90
72936;DHT22;61085;48.804;9.228;2023-04-28T08:43:41;12.60;99.90
72936;DHT22;61085;48.804;9.228;2023-04-28T08:46:08;12.80;99.90
72936;DHT22;61085;48.804;9.228;2023-04-28T08:48:42;12.80;99.90
72936;DHT22;61085;48.804;9.228;2023-04-28T08:51:14;12.80;99.90
72936;DHT22;61085;48.804;9.228;2023-04-28T08:53:44;12.80;99.90
72936;DHT22;61085;48.804;9.228;2023-04-28T08:56:11;12.90;99.90
72936;DHT22;61085;48.804;9.228;2023-04-28T08:58:41;12.90;99.90
72936;DHT22;61085;48.804;9.228;2023-04-28T09:01:07;13.10;99.90
72936;DHT22;61085;48.804;9.228;2023-04-28T09:03:33;13.20;99.90
72936;DHT22;61085;48.804;9.228;2023-04-28T09:06:00;13.40;99.90
72936;DHT22;61085;48.804;9.228;2023-04-28T09:08:26;13.50;99.90
72936;DHT22;61085;48.804;9.228;2023-04-28T09:11:08;13.80;99.90
72936;DHT22;61085;48.804;9.228;2023-04-28T09:13:35;13.80;99.90
72936;DHT22;61085;48.804;9.228;2023-04-28T09:16:01;13.90;99.90
72936;DHT22;61085;48.804;9.228;2023-04-28T09:18:31;13.90;99.90
72936;DHT22;61085;48.804;9.228;2023-04-28T09:21:10;13.90;99.90
72936;DHT22;61085;48.804;9.228;2023-04-28T09:23:46;14.00;99.90
72936;DHT22;61085;48.804;9.228;2023-04-28T09:26:14;14.00;99.90
72936;DHT22;61085;48.804;9.228;2023-04-28T09:28:39;14.00;99.90
72936;DHT22;61085;48.804;9.228;2023-04-28T09:31:05;14.10;99.90
72936;DHT22;61085;48.804;9.228;2023-04-28T09:33:31;14.00;99.90
72936;DHT22;61085;48.804;9.228;2023-04-28T09:35:57;14.30;99.90
72936;DHT22;61085;48.804;9.228;2023-04-28T09:38:22;14.50;99.90
72936;DHT22;61085;48.804;9.228;2023-04-28T09:41:01;14.50;99.90
72936;DHT22;61085;48.804;9.228;2023-04-28T09:43:30;14.70;99.90
72936;DHT22;61085;48.804;9.228;2023-04-28T09:45:58;14.60;99.90
72936;DHT22;61085;48.804;9.228;2023-04-28T09:48:34;14.60;99.90
72936;DHT22;61085;48.804;9.228;2023-04-28T09:51:02;14.70;99.90
72936;DHT22;61085;48.804;9.228;2023-04-28T09:53:29;14.60;99.90
72936;DHT22;61085;48.804;9.228;2023-04-28T09:55:57;14.70;99.90
72936;DHT22;61085;48.804;9.228;2023-04-28T09:58:25;14.60;99.90
72936;DHT22;61085;48.804;9.228;2023-04-28T10:00:57;14.70;99.90
72936;DHT22;61085;48.804;9.228;2023-04-28T10:03:27;14.70;99.90
72936;DHT22;61085;48.804;9.228;2023-04-28T10:05:53;15.00;99.90
72936;DHT22;61085;48.804;9.228;2023-04-28T10:08:20;15.20;99.90
72936;DHT22;61085;48.804;9.228;2023-04-28T10:10:48;15.40;99.90
72936;DHT22;61085;48.804;9.228;2023-04-28T10:13:18;15.70;99.90
72936;DHT22;61085;48.804;9.228;2023-04-28T10:15:47;16.20;99.90
72936;DHT22;61085;48.804;9.228;2023-04-28T10:18:14;16.20;99.90
72936;DHT22;61085;48.804;9.228;2023-04-28T10:20:52;16.20;99.90
72936;DHT22;61085;48.804;9.228;2023-04-28T10:23:49;15.90;99.90
72936;DHT22;61085;48.804;9.228;2023-04-28T10:26:19;15.80;99.90
72936;DHT22;61085;48.804;9.228;2023-04-28T10:28:47;15.80;99.90
72936;DHT22;61085;48.804;9.228;2023-04-28T10:31:18;15.80;99.90
72936;DHT22;61085;48.804;9.228;2023-04-28T10:33:45;16.20;99.90
72936;DHT22;61085;48.804;9.228;2023-04-28T10:36:47;16.40;99.90
72936;DHT22;61085;48.804;9.228;2023-04-28T10:39:15;16.80;99.90
72936;DHT22;61085;48.804;9.228;2023-04-28T10:41:41;17.10;99.90
72936;DHT22;61085;48.804;9.228;2023-04-28T10:47:05;17.70;99.90
72936;DHT22;61085;48.804;9.228;2023-04-28T10:55:31;17.70;99.90
72936;DHT22;61085;48.804;9.228;2023-04-28T11:00:47;17.90;99.90
72936;DHT22;61085;48.804;9.228;2023-04-28T11:03:41;18.00;99.90
72936;DHT22;61085;48.804;9.228;2023-04-28T11:17:07;18.20;99.90
72936;DHT22;61085;48.804;9.228;2023-04-28T11:19:36;18.20;99.90
72936;DHT22;61085;48.804;9.228;2023-04-28T11:22:19;18.20;99.90
72936;DHT22;61085;48.804;9.228;2023-04-28T11:24:58;18.10;99.90
72936;DHT22;61085;48.804;9.228;2023-04-28T11:27:25;18.10;99.90
72936;DHT22;61085;48.804;9.228;2023-04-28T11:29:51;18.30;99.90
72936;DHT22;61085;48.804;9.228;2023-04-28T11:32:28;18.30;99.90
72936;DHT22;61085;48.804;9.228;2023-04-28T11:34:54;18.30;99.90
72936;DHT22;61085;48.804;9.228;2023-04-28T11:37:20;18.50;99.90
72936;DHT22;61085;48.804;9.228;2023-04-28T11:39:46;18.60;99.90
72936;DHT22;61085;48.804;9.228;2023-04-28T11:42:12;18.90;99.90
72936;DHT22;61085;48.804;9.228;2023-04-28T11:44:37;18.80;99.90
72936;DHT22;61085;48.804;9.228;2023-04-28T11:47:04;18.90;99.90
72936;DHT22;61085;48.804;9.228;2023-04-28T11:49:31;18.90;99.90
72936;DHT22;61085;48.804;9.228;2023-04-28T11:52:06;18.60;99.90
72936;DHT22;61085;48.804;9.228;2023-04-28T11:54:33;18.50;99.90
72936;DHT22;61085;48.804;9.228;2023-04-28T11:56:59;18.30;99.90
72936;DHT22;61085;48.804;9.228;2023-04-28T11:59:30;18.30;99.90
72936;DHT22;61085;48.804;9.228;2023-04-28T12:01:59;18.40;99.90
72936;DHT22;61085;48.804;9.228;2023-04-28T12:09:29;18.30;99.90
72936;DHT22;61085;48.804;9.228;2023-04-28T12:11:59;18.40;99.90
72936;DHT22;61085;48.804;9.228;2023-04-28T12:14:26;18.20;99.90
72936;DHT22;61085;48.804;9.228;2023-04-28T12:16:52;18.40;99.90
72936;DHT22;61085;48.804;9.228;2023-04-28T12:19:18;18.40;99.90
72936;DHT22;61085;48.804;9.228;2023-04-28T12:21:58;18.40;99.90
72936;DHT22;61085;48.804;9.228;2023-04-28T12:24:25;18.40;99.90
72936;DHT22;61085;48.804;9.228;2023-04-28T12:26:51;18.30;99.90
72936;DHT22;61085;48.804;9.228;2023-04-28T12:29:40;18.30;99.90
72936;DHT22;61085;48.804;9.228;2023-04-28T12:32:10;18.40;99.90
72936;DHT22;61085;48.804;9.228;2023-04-28T12:34:37;18.30;99.90
72936;DHT22;61085;48.804;9.228;2023-04-28T12:37:04;18.20;99.90
72936;DHT22;61085;48.804;9.228;2023-04-28T12:39:34;18.40;99.90
72936;DHT22;61085;48.804;9.228;2023-04-28T12:42:01;18.00;99.90
72936;DHT22;61085;48.804;9.228;2023-04-28T12:44:36;18.00;99.90
72936;DHT22;61085;48.804;9.228;2023-04-28T12:47:10;17.80;99.90
72936;DHT22;61085;48.804;9.228;2023-04-28T12:49:37;17.90;99.90
72936;DHT22;61085;48.804;9.228;2023-04-28T12:52:03;17.30;99.90
72936;DHT22;61085;48.804;9.228;2023-04-28T12:54:29;16.90;99.90
72936;DHT22;61085;48.804;9.228;2023-04-28T12:56:55;16.70;99.90
72936;DHT22;61085;48.804;9.228;2023-04-28T12:59:21;16.40;99.90
72936;DHT22;61085;48.804;9.228;2023-04-28T13:01:48;16.30;99.90
72936;DHT22;61085;48.804;9.228;2023-04-28T13:04:13;16.20;99.90
72936;DHT22;61085;48.804;9.228;2023-04-28T13:06:39;16.30;99.90
72936;DHT22;61085;48.804;9.228;2023-04-28T13:09:11;16.00;99.90
72936;DHT22;61085;48.804;9.228;2023-04-28T13:11:38;16.00;99.90
72936;DHT22;61085;48.804;9.228;2023-04-28T13:14:04;16.30;99.90
72936;DHT22;61085;48.804;9.228;2023-04-28T13:16:29;16.10;99.90
72936;DHT22;61085;48.804;9.228;2023-04-28T13:18:58;16.30;99.90
72936;DHT22;61085;48.804;9.228;2023-04-28T13:21:24;16.20;99.90
72936;DHT22;61085;48.804;9.228;2023-04-28T13:23:51;16.40;99.90
72936;DHT22;61085;48.804;9.228;2023-04-28T13:26:18;16.50;99.90
72936;DHT22;61085;48.804;9.228;2023-04-28T13:28:46;16.50;99.90
72936;DHT22;61085;48.804;9.228;2023-04-28T13:31:12;16.60;99.90
72936;DHT22;61085;48.804;9.228;2023-04-28T13:33:38;16.50;99.90
72936;DHT22;61085;48.804;9.228;2023-04-28T13:36:04;16.50;99.90
72936;DHT22;61085;48.804;9.228;2023-04-28T13:38:29;16.60;99.90
72936;DHT22;61085;48.804;9.228;2023-04-28T13:40:55;16.50;99.90
72936;DHT22;61085;48.804;9.228;2023-04-28T13:43:21;16.70;99.90
72936;DHT22;61085;48.804;9.228;2023-04-28T13:45:46;16.90;99.90
72936;DHT22;61085;48.804;9.228;2023-04-28T13:48:12;17.00;99.90
72936;DHT22;61085;48.804;9.228;2023-04-28T13:50:38;16.70;99.90
72936;DHT22;61085;48.804;9.228;2023-04-28T13:53:04;16.60;99.90
72936;DHT22;61085;48.804;9.228;2023-04-28T13:55:29;16.50;99.90
72936;DHT22;61085;48.804;9.228;2023-04-28T13:57:55;16.50;99.90
72936;DHT22;61085;48.804;9.228;2023-04-28T14:00:21;16.50;99.90
72936;DHT22;61085;48.804;9.228;2023-04-28T14:02:49;16.60;99.90
72936;DHT22;61085;48.804;9.228;2023-04-28T14:05:15;16.70;99.90
72936;DHT22;61085;48.804;9.228;2023-04-28T14:07:42;16.80;99.90
72936;DHT22;61085;48.804;9.228;2023-04-28T14:10:08;16.90;99.90
72936;DHT22;61085;48.804;9.228;2023-04-28T14:12:35;16.70;99.90
72936;DHT22;61085;48.804;9.228;2023-04-28T14:15:01;16.70;99.90
72936;DHT22;61085;48.804;9.228;2023-04-28T14:17:27;16.60;99.90
72936;DHT22;61085;48.804;9.228;2023-04-28T14:19:53;16.60;99.90
72936;DHT22;61085;48.804;9.228;2023-04-28T14:22:18;16.70;99.90
72936;DHT22;61085;48.804;9.228;2023-04-28T14:24:44;16.80;99.90
72936;DHT22;61085;48.804;9.228;2023-04-28T14:27:10;16.70;99.90
72936;DHT22;61085;48.804;9.228;2023-04-28T14:29:36;16.70;99.90
72936;DHT22;61085;48.804;9.228;2023-04-28T14:32:01;16.90;99.90
72936;DHT22;61085;48.804;9.228;2023-04-28T14:34:27;16.70;99.90
72936;DHT22;61085;48.804;9.228;2023-04-28T14:36:53;16.80;99.90
72936;DHT22;61085;48.804;9.228;2023-04-28T14:39:18;16.70;99.90
72936;DHT22;61085;48.804;9.228;2023-04-28T14:41:44;16.70;99.90
72936;DHT22;61085;48.804;9.228;2023-04-28T14:44:10;16.80;99.90
72936;DHT22;61085;48.804;9.228;2023-04-28T14:46:35;16.80;99.90
72936;DHT22;61085;48.804;9.228;2023-04-28T14:49:02;17.30;99.90
72936;DHT22;61085;48.804;9.228;2023-04-28T14:51:28;17.20;99.90
72936;DHT22;61085;48.804;9.228;2023-04-28T14:53:53;17.40;99.90
72936;DHT22;61085;48.804;9.228;2023-04-28T14:56:19;17.50;99.90
72936;DHT22;61085;48.804;9.228;2023-04-28T14:58:45;17.80;99.90
72936;DHT22;61085;48.804;9.228;2023-04-28T15:01:11;17.70;99.90
72936;DHT22;61085;48.804;9.228;2023-04-28T15:03:37;17.80;99.90
72936;DHT22;61085;48.804;9.228;2023-04-28T15:06:03;17.80;99.90
72936;DHT22;61085;48.804;9.228;2023-04-28T15:08:30;17.60;99.90
72936;DHT22;61085;48.804;9.228;2023-04-28T15:10:56;17.70;99.90
72936;DHT22;61085;48.804;9.228;2023-04-28T15:13:22;17.70;99.90
72936;DHT22;61085;48.804;9.228;2023-04-28T15:15:49;17.50;99.90
72936;DHT22;61085;48.804;9.228;2023-04-28T15:18:16;17.40;99.90
72936;DHT22;61085;48.804;9.228;2023-04-28T15:20:42;17.30;99.90
72936;DHT22;61085;48.804;9.228;2023-04-28T15:23:08;17.30;99.90
72936;DHT22;61085;48.804;9.228;2023-04-28T15:25:35;17.30;99.90
72936;DHT22;61085;48.804;9.228;2023-04-28T15:28:00;17.30;99.90
72936;DHT22;61085;48.804;9.228;2023-04-28T15:30:37;17.30;99.90
72936;DHT22;61085;48.804;9.228;2023-04-28T15:33:02;17.30;99.90
72936;DHT22;61085;48.804;9.228;2023-04-28T15:35:28;17.40;99.90
72936;DHT22;61085;48.804;9.228;2023-04-28T15:37:54;17.40;99.90
72936;DHT22;61085;48.804;9.228;2023-04-28T15:40:20;17.40;99.90
72936;DHT22;61085;48.804;9.228;2023-04-28T15:42:47;17.40;99.90
72936;DHT22;61085;48.804;9.228;2023-04-28T15:45:19;17.30;99.90
72936;DHT22;61085;48.804;9.228;2023-04-28T15:47:48;17.10;99.90
72936;DHT22;61085;48.804;9.228;2023-04-28T15:50:15;17.00;99.90
72936;DHT22;61085;48.804;9.228;2023-04-28T15:52:42;17.00;99.90
72936;DHT22;61085;48.804;9.228;2023-04-28T15:55:11;17.00;99.90
72936;DHT22;61085;48.804;9.228;2023-04-28T15:57:38;16.90;99.90
72936;DHT22;61085;48.804;9.228;2023-04-28T16:00:04;16.80;99.90